Tropical Cyclones
[Index]
Main Index Home Page Stock Weather Photos Extreme Storms Discussion Storm News and Storm Chasing Reports Tropical Cyclones / Hurricanes / Typhoons Weather Data and Links Wild Fires / Bushfires Weather Observation Techniques Weather Picture Catalogue Tornado Pictures and Reports Stock Video Footage and DVDs for sale
Season 1994-1995 Tropical Cyclone MARLENE Track Map
Season 1994-1995 Summaries: [BoM-AU] [JTWC-AU] [JTWC-SIO] [JTWC-SPAC] [JTWC-SH]
<<- Previous TC | JTWC 1994-1995 Season | Next TC ->>

click for intensity scale information  Lat/long Grid: Show Hide

 Date Labels: Show Hide

Joint Typhoon Warning Centre Cyclone Data

Name: MARLENE

28 Mar 1995 18:00 UTC to 11 Apr 1995 00:00 UTC

    date/time    lat    long     hPa   cat  kts
1995-03-28 18    9.6    77.5                  15          
1995-03-29 00    9.8    77.6                  15          
1995-03-29 06   10.0    77.5                  20          
1995-03-29 12   10.2    77.3                  20          
1995-03-29 18   10.4    77.0                  20          
1995-03-30 00   10.6    76.7                  25          
1995-03-30 06   10.8    76.2                  25          
1995-03-30 12   11.0    75.6                  25          
1995-03-30 18   11.3    75.0                  30          
1995-03-31 00   11.6    74.2                  35          
1995-03-31 06   11.9    73.4            1     40          
1995-03-31 12   12.1    72.5            1     45          
1995-03-31 18   12.3    71.6            1     50          
1995-04-01 00   12.4    70.8            2     55          
1995-04-01 06   12.5    70.2            2     65          
1995-04-01 12   12.6    69.8            3     75          
1995-04-01 18   12.8    69.6            3     85          
1995-04-02 00   13.1    69.5            3     90          
1995-04-02 06   13.5    69.4            3     95          
1995-04-02 12   14.0    69.5            4    100          
1995-04-02 18   14.6    69.4            4    105          
1995-04-03 00   15.2    69.3            4    110          
1995-04-03 06   15.7    69.2            4    115          
1995-04-03 12   16.1    69.3            4    120          
1995-04-03 18   16.4    69.4            5    125          
1995-04-04 00   16.6    69.5            5    125          
1995-04-04 06   16.8    69.4            4    115          
1995-04-04 12   17.0    69.3            4    105          
1995-04-04 18   17.1    69.3            4    100          
1995-04-05 00   17.2    69.3            3     95          
1995-04-05 06   17.3    69.2            3     90          
1995-04-05 12   17.4    69.2            3     85          
1995-04-05 18   17.5    69.1            3     80          
1995-04-06 00   17.6    69.1            3     75          
1995-04-06 06   17.7    69.0            2     70          
1995-04-06 12   17.8    69.0            2     65          
1995-04-06 18   17.9    68.9            2     60          
1995-04-07 00   18.0    68.9            2     55          
1995-04-07 06   18.1    69.0            2     55          
1995-04-07 12   18.3    69.1            1     50          
1995-04-07 18   18.5    69.3            1     50          
1995-04-08 00   18.7    69.6            1     45          
1995-04-08 06   18.9    70.0            1     45          
1995-04-08 12   19.2    70.5            1     45          
1995-04-08 18   19.4    71.4            1     40          
1995-04-09 00   19.5    72.5            1     40          
1995-04-09 06   19.6    73.7            1     40          
1995-04-09 12   19.7    75.1            1     40          
1995-04-09 18   19.9    76.7                  35          
1995-04-10 00   20.2    78.5                  35          
1995-04-10 06   20.6    80.6                  35          
1995-04-10 12   21.1    83.1                  35          
1995-04-10 18   21.8    86.1                  30          
1995-04-11 00   22.7    89.8                  30          
Winds are 1-min average.

Tropical cyclone tracks developed by Michael Bath using data from the Joint Typhoon Warning Centre Best Tracks and Google Maps.


[Australian Severe Weather index] [Copyright Notice] [Email Contacts] [Search This Site] [Privacy Policy]
Document: tropical_cyclone_marlene.htm Updated: 18 September 2016